Time;durP1;ratioP1;P1;durP2;ratioP2;P2;SDS_P1;SDS_P2;PMS_P1;PMS_P2;Temp;Humidity;BMP_temperature;BMP_pressure;BME280_temperature;BME280_humidity;BME280_pressure;Samples;Min_cycle;Max_cycle;Signal;HPM_P1;HPM_P2
2024/01/22 00:01:58;;;;;;;;;;;0.80;99.90;;;;;;5060167;28;20310;-69
2024/01/22 00:04:25;;;;;;;;;;;0.80;99.90;;;;;;5064349;28;19929;-70
2024/01/22 00:06:53;;;;;;;;;;;0.80;99.90;;;;;;5057169;28;19982;-70
2024/01/22 00:09:19;;;;;;;;;;;0.80;99.90;;;;;;5063654;28;19928;-70
2024/01/22 00:11:46;;;;;;;;;;;0.80;99.90;;;;;;5059194;28;19929;-70
2024/01/22 00:14:12;;;;;;;;;;;0.80;99.90;;;;;;5060335;28;19928;-70
2024/01/22 00:16:40;;;;;;;;;;;0.80;99.90;;;;;;5061762;28;19928;-70
2024/01/22 00:19:06;;;;;;;;;;;0.80;99.90;;;;;;5060951;28;20039;-70
2024/01/22 00:21:33;;;;;;;;;;;0.80;99.90;;;;;;5060465;28;19928;-70
2024/01/22 00:24:01;;;;;;;;;;;0.80;99.90;;;;;;5060574;28;19932;-70
2024/01/22 00:26:27;;;;;;;;;;;0.80;99.90;;;;;;5060783;28;20026;-70
2024/01/22 00:28:54;;;;;;;;;;;0.80;99.90;;;;;;5061617;28;19933;-70
2024/01/22 00:31:20;;;;;;;;;;;0.80;99.90;;;;;;5058991;28;19939;-70
2024/01/22 00:33:47;;;;;;;;;;;0.80;99.90;;;;;;5060972;28;19935;-70
2024/01/22 00:36:14;;;;;;;;;;;0.80;99.90;;;;;;5060829;28;19944;-70
2024/01/22 00:38:41;;;;;;;;;;;0.80;99.90;;;;;;5061298;28;19933;-70
2024/01/22 00:41:09;;;;;;;;;;;0.80;99.90;;;;;;5060586;28;19932;-70
2024/01/22 00:43:36;;;;;;;;;;;0.80;99.90;;;;;;5063319;28;19936;-69
2024/01/22 00:46:02;;;;;;;;;;;0.80;99.90;;;;;;5062798;28;19935;-70
2024/01/22 00:48:29;;;;;;;;;;;0.80;99.90;;;;;;5064266;28;19951;-70
2024/01/22 00:50:55;;;;;;;;;;;0.80;99.90;;;;;;5062246;28;19970;-70
2024/01/22 00:53:22;;;;;;;;;;;0.80;99.90;;;;;;5064782;28;19928;-70
2024/01/22 00:55:48;;;;;;;;;;;0.80;99.90;;;;;;5066952;28;19932;-70
2024/01/22 00:58:16;;;;;;;;;;;0.70;99.90;;;;;;5064806;28;19935;-70
2024/01/22 01:00:43;;;;;;;;;;;0.70;99.90;;;;;;5065031;28;19928;-69
2024/01/22 01:03:09;;;;;;;;;;;0.70;99.90;;;;;;5065561;28;19940;-69
2024/01/22 01:05:36;;;;;;;;;;;0.70;99.90;;;;;;5064456;28;19928;-70
2024/01/22 01:08:02;;;;;;;;;;;0.70;99.90;;;;;;5062338;28;19932;-69
2024/01/22 01:10:29;;;;;;;;;;;0.70;99.90;;;;;;5066984;28;19928;-70
2024/01/22 01:12:55;;;;;;;;;;;0.70;99.90;;;;;;5065299;28;19938;-69
2024/01/22 01:15:24;;;;;;;;;;;0.70;99.90;;;;;;5064281;28;20634;-71
2024/01/22 01:17:50;;;;;;;;;;;0.70;99.90;;;;;;5065470;28;19938;-69
2024/01/22 01:20:17;;;;;;;;;;;0.70;99.90;;;;;;5066748;28;19932;-70
2024/01/22 01:22:44;;;;;;;;;;;0.70;99.90;;;;;;5064665;28;19924;-70
2024/01/22 01:25:10;;;;;;;;;;;0.70;99.90;;;;;;5063997;28;19933;-70
2024/01/22 01:27:37;;;;;;;;;;;0.70;99.90;;;;;;5060282;28;19964;-70
2024/01/22 01:30:04;;;;;;;;;;;0.70;99.90;;;;;;5068718;28;19928;-71
2024/01/22 01:32:32;;;;;;;;;;;0.60;99.90;;;;;;5066996;28;19939;-70
2024/01/22 01:34:58;;;;;;;;;;;0.70;99.90;;;;;;5064717;28;19982;-70
2024/01/22 01:37:25;;;;;;;;;;;0.60;99.90;;;;;;5065132;28;19927;-70
2024/01/22 01:39:51;;;;;;;;;;;0.60;99.90;;;;;;5065374;28;19971;-70
2024/01/22 01:42:18;;;;;;;;;;;0.60;99.90;;;;;;5064402;28;19935;-70
2024/01/22 01:44:50;;;;;;;;;;;0.60;99.90;;;;;;5060931;28;19939;-69
2024/01/22 01:47:16;;;;;;;;;;;0.60;99.90;;;;;;5063896;28;19928;-70
2024/01/22 01:49:45;;;;;;;;;;;0.60;99.90;;;;;;5065166;28;20103;-70
2024/01/22 01:52:11;;;;;;;;;;;0.60;99.90;;;;;;5062692;28;19929;-70
2024/01/22 01:54:39;;;;;;;;;;;0.60;99.90;;;;;;5063841;28;19928;-70
2024/01/22 01:57:06;;;;;;;;;;;0.60;99.90;;;;;;5065055;28;19935;-70
2024/01/22 01:59:32;;;;;;;;;;;0.60;99.90;;;;;;5063556;28;19936;-69
2024/01/22 02:01:59;;;;;;;;;;;0.60;99.90;;;;;;5064649;28;19936;-70
2024/01/22 02:04:25;;;;;;;;;;;0.60;99.90;;;;;;5065533;28;19932;-69
2024/01/22 02:06:53;;;;;;;;;;;0.60;99.90;;;;;;5063658;28;19990;-71
2024/01/22 02:09:20;;;;;;;;;;;0.60;99.90;;;;;;5064274;28;19929;-70
2024/01/22 02:11:47;;;;;;;;;;;0.60;99.90;;;;;;5063555;28;19951;-70
2024/01/22 02:14:13;;;;;;;;;;;0.60;99.90;;;;;;5064272;28;20305;-70
2024/01/22 02:16:40;;;;;;;;;;;0.60;99.90;;;;;;5063933;28;20382;-70
2024/01/22 02:19:07;;;;;;;;;;;0.60;99.90;;;;;;5064093;28;19928;-69
2024/01/22 02:21:33;;;;;;;;;;;0.60;99.90;;;;;;5063022;28;20027;-70
2024/01/22 02:24:01;;;;;;;;;;;0.60;99.90;;;;;;5062860;28;20380;-70
2024/01/22 02:26:28;;;;;;;;;;;0.60;99.90;;;;;;5062238;28;20243;-69
2024/01/22 02:28:54;;;;;;;;;;;0.50;99.90;;;;;;5065400;28;19932;-69
2024/01/22 02:31:21;;;;;;;;;;;0.60;99.90;;;;;;5063250;28;19932;-70
2024/01/22 02:33:48;;;;;;;;;;;0.50;99.90;;;;;;5059863;28;20468;-70
2024/01/22 02:36:14;;;;;;;;;;;0.50;99.90;;;;;;5064252;28;19932;-70
2024/01/22 02:38:41;;;;;;;;;;;0.50;99.90;;;;;;5065145;28;19936;-70
2024/01/22 02:41:09;;;;;;;;;;;0.50;99.90;;;;;;5062411;28;19943;-71
2024/01/22 02:43:35;;;;;;;;;;;0.50;99.90;;;;;;5062931;28;20015;-69
2024/01/22 02:46:02;;;;;;;;;;;0.50;99.90;;;;;;5062208;28;20025;-69
2024/01/22 02:48:28;;;;;;;;;;;0.50;99.90;;;;;;5061063;28;19932;-70
2024/01/22 02:50:55;;;;;;;;;;;0.50;99.90;;;;;;5062269;28;19932;-70
2024/01/22 02:53:22;;;;;;;;;;;0.50;99.90;;;;;;5062652;28;19928;-70
2024/01/22 02:55:48;;;;;;;;;;;0.50;99.90;;;;;;5064745;28;20369;-70
2024/01/22 02:58:16;;;;;;;;;;;0.50;99.90;;;;;;5064031;28;19939;-70
2024/01/22 03:00:43;;;;;;;;;;;0.50;99.90;;;;;;5061097;28;20402;-70
2024/01/22 03:03:09;;;;;;;;;;;0.50;99.90;;;;;;5065348;28;20405;-70
2024/01/22 03:05:36;;;;;;;;;;;0.50;99.90;;;;;;5059349;28;19932;-70
2024/01/22 03:08:03;;;;;;;;;;;0.50;99.90;;;;;;5064648;28;19928;-68
2024/01/22 03:10:29;;;;;;;;;;;0.50;99.90;;;;;;5063704;28;20015;-70
2024/01/22 03:12:56;;;;;;;;;;;0.50;99.90;;;;;;5060377;28;19933;-70
2024/01/22 03:15:24;;;;;;;;;;;0.50;99.90;;;;;;5057810;28;20398;-70
2024/01/22 03:17:50;;;;;;;;;;;0.50;99.90;;;;;;5064132;28;20472;-70
2024/01/22 03:20:17;;;;;;;;;;;0.50;99.90;;;;;;5061253;28;19936;-70
2024/01/22 03:22:43;;;;;;;;;;;0.50;99.90;;;;;;5063990;28;20022;-71
2024/01/22 03:25:14;;;;;;;;;;;0.50;99.90;;;;;;5061780;28;19939;-70
2024/01/22 03:27:40;;;;;;;;;;;0.50;99.90;;;;;;5060570;28;19932;-70
2024/01/22 03:30:07;;;;;;;;;;;0.50;99.90;;;;;;5065262;28;19928;-69
2024/01/22 03:32:35;;;;;;;;;;;0.50;99.90;;;;;;5067359;28;20413;-71
2024/01/22 03:35:02;;;;;;;;;;;0.50;99.90;;;;;;5058464;28;19932;-70
2024/01/22 03:37:28;;;;;;;;;;;0.50;99.90;;;;;;5055680;28;19936;-71
2024/01/22 03:39:55;;;;;;;;;;;0.50;99.90;;;;;;5063550;28;19935;-70
2024/01/22 03:42:21;;;;;;;;;;;0.50;99.90;;;;;;5061589;28;20110;-70
2024/01/22 03:44:48;;;;;;;;;;;0.50;99.90;;;;;;5065611;28;19928;-70
2024/01/22 03:47:14;;;;;;;;;;;0.60;99.90;;;;;;5057538;28;19929;-70
2024/01/22 03:49:42;;;;;;;;;;;0.60;99.90;;;;;;5059368;28;19993;-70
2024/01/22 03:52:09;;;;;;;;;;;0.60;99.90;;;;;;5060711;28;19936;-70
2024/01/22 03:54:35;;;;;;;;;;;0.50;99.90;;;;;;5058932;28;19929;-69
2024/01/22 03:57:06;;;;;;;;;;;0.60;99.90;;;;;;5058883;28;19928;-70
2024/01/22 03:59:33;;;;;;;;;;;0.60;99.90;;;;;;5062259;28;20498;-70
2024/01/22 04:01:59;;;;;;;;;;;0.60;99.90;;;;;;5060882;28;19933;-70
2024/01/22 04:04:26;;;;;;;;;;;0.60;99.90;;;;;;5060257;28;19932;-70
2024/01/22 04:06:54;;;;;;;;;;;0.60;99.90;;;;;;5056902;28;19936;-70
2024/01/22 04:09:20;;;;;;;;;;;0.60;99.90;;;;;;5058845;28;20382;-70
2024/01/22 04:11:47;;;;;;;;;;;0.60;99.90;;;;;;5061965;28;19932;-70
2024/01/22 04:14:14;;;;;;;;;;;0.60;99.90;;;;;;5058566;28;19936;-70
2024/01/22 04:16:40;;;;;;;;;;;0.60;99.90;;;;;;5061349;28;20223;-70
2024/01/22 04:19:07;;;;;;;;;;;0.60;99.90;;;;;;5063220;28;19935;-69
2024/01/22 04:21:33;;;;;;;;;;;0.60;99.90;;;;;;5062648;28;20712;-70
2024/01/22 04:24:01;;;;;;;;;;;0.60;99.90;;;;;;5058570;28;20401;-70
2024/01/22 04:26:28;;;;;;;;;;;0.60;99.90;;;;;;5060615;28;20310;-70
2024/01/22 04:28:54;;;;;;;;;;;0.60;99.90;;;;;;5060741;28;19985;-70
2024/01/22 04:31:21;;;;;;;;;;;0.60;99.90;;;;;;5060575;28;19959;-70
2024/01/22 04:33:47;;;;;;;;;;;0.60;99.90;;;;;;5058410;28;20543;-69
2024/01/22 04:36:14;;;;;;;;;;;0.60;99.90;;;;;;5057548;28;19941;-70
2024/01/22 04:38:40;;;;;;;;;;;0.60;99.90;;;;;;5057106;28;19940;-70
2024/01/22 04:41:08;;;;;;;;;;;0.70;99.90;;;;;;5063726;28;20400;-70
2024/01/22 04:43:35;;;;;;;;;;;0.70;99.90;;;;;;5059810;28;19932;-70
2024/01/22 04:46:01;;;;;;;;;;;0.70;99.90;;;;;;5061225;28;19982;-70
2024/01/22 04:48:28;;;;;;;;;;;0.70;99.90;;;;;;5058487;28;19932;-70
2024/01/22 04:50:54;;;;;;;;;;;0.70;99.90;;;;;;5061447;28;19933;-70
2024/01/22 04:53:21;;;;;;;;;;;0.70;99.90;;;;;;5059018;28;19929;-70
2024/01/22 04:55:47;;;;;;;;;;;0.70;99.90;;;;;;5062574;28;19929;-71
2024/01/22 04:58:15;;;;;;;;;;;0.70;99.90;;;;;;5059916;28;20328;-69
2024/01/22 05:00:42;;;;;;;;;;;0.70;99.90;;;;;;5062888;28;20469;-70
2024/01/22 05:03:08;;;;;;;;;;;0.70;99.90;;;;;;5058653;28;19933;-70
2024/01/22 05:05:35;;;;;;;;;;;0.70;99.90;;;;;;5063679;28;19933;-69
2024/01/22 05:08:02;;;;;;;;;;;0.80;99.90;;;;;;5062277;28;19928;-69
2024/01/22 05:10:28;;;;;;;;;;;0.80;99.90;;;;;;5062153;28;20058;-70
2024/01/22 05:12:55;;;;;;;;;;;0.70;99.90;;;;;;5061883;28;20380;-70
2024/01/22 05:15:23;;;;;;;;;;;0.80;99.90;;;;;;5060087;28;19935;-70
2024/01/22 05:17:49;;;;;;;;;;;0.80;99.90;;;;;;5062978;28;20438;-70
2024/01/22 05:20:16;;;;;;;;;;;0.80;99.90;;;;;;5058244;28;19928;-71
2024/01/22 05:22:44;;;;;;;;;;;0.80;99.90;;;;;;5058323;28;19932;-69
2024/01/22 05:25:11;;;;;;;;;;;0.80;99.90;;;;;;5062107;28;20446;-70
2024/01/22 05:27:37;;;;;;;;;;;0.80;99.90;;;;;;5060114;28;19932;-69
2024/01/22 05:30:04;;;;;;;;;;;0.80;99.90;;;;;;5065198;28;19932;-71
2024/01/22 05:32:32;;;;;;;;;;;0.80;99.90;;;;;;5064768;28;19939;-70
2024/01/22 05:34:59;;;;;;;;;;;0.90;99.90;;;;;;5064281;28;19936;-70
2024/01/22 05:37:25;;;;;;;;;;;0.80;99.90;;;;;;5064246;28;19932;-70
2024/01/22 05:39:52;;;;;;;;;;;0.90;99.90;;;;;;5061718;28;19941;-69
2024/01/22 05:42:18;;;;;;;;;;;0.90;99.90;;;;;;5069003;28;19929;-70
2024/01/22 05:44:45;;;;;;;;;;;0.90;99.90;;;;;;5066571;28;19935;-70
2024/01/22 05:47:11;;;;;;;;;;;0.90;99.90;;;;;;5063887;28;20338;-69
2024/01/22 05:49:41;;;;;;;;;;;0.90;99.90;;;;;;5060207;28;19932;-70
2024/01/22 05:52:08;;;;;;;;;;;0.90;99.90;;;;;;5062310;28;19928;-70
2024/01/22 05:54:34;;;;;;;;;;;0.90;99.90;;;;;;5064424;28;20011;-71
2024/01/22 05:57:01;;;;;;;;;;;1.00;99.90;;;;;;5064684;28;20440;-70
2024/01/22 05:59:27;;;;;;;;;;;1.00;99.90;;;;;;5060566;28;19939;-69
2024/01/22 06:01:55;;;;;;;;;;;1.00;99.90;;;;;;5062348;28;19936;-71
2024/01/22 06:04:23;;;;;;;;;;;1.00;99.90;;;;;;5063493;28;19928;-71
2024/01/22 06:06:50;;;;;;;;;;;1.00;99.90;;;;;;5063035;28;19928;-70
2024/01/22 06:09:17;;;;;;;;;;;1.10;99.90;;;;;;5065267;28;19933;-70
2024/01/22 06:11:44;;;;;;;;;;;1.10;99.90;;;;;;5060326;28;20020;-69
2024/01/22 06:14:10;;;;;;;;;;;1.10;99.90;;;;;;5062253;28;19932;-70
2024/01/22 06:16:37;;;;;;;;;;;1.10;99.90;;;;;;5058565;28;19983;-70
2024/01/22 06:19:04;;;;;;;;;;;1.10;99.90;;;;;;5066567;28;19932;-70
2024/01/22 06:21:30;;;;;;;;;;;1.10;99.90;;;;;;5063409;28;20321;-69
2024/01/22 06:23:58;;;;;;;;;;;1.20;99.90;;;;;;5062332;28;19931;-70
2024/01/22 06:26:25;;;;;;;;;;;1.20;99.90;;;;;;5060079;28;19928;-68
2024/01/22 06:28:52;;;;;;;;;;;1.30;99.90;;;;;;5063024;28;19933;-69
2024/01/22 06:31:19;;;;;;;;;;;1.30;99.90;;;;;;5061775;28;20414;-69
2024/01/22 06:33:46;;;;;;;;;;;1.30;99.90;;;;;;5063066;28;19935;-69
2024/01/22 06:36:12;;;;;;;;;;;1.40;99.90;;;;;;5060907;28;19936;-69
2024/01/22 06:38:39;;;;;;;;;;;1.40;99.90;;;;;;5061044;28;19963;-69
2024/01/22 06:41:11;;;;;;;;;;;1.40;99.90;;;;;;5060755;28;20329;-70
2024/01/22 06:43:38;;;;;;;;;;;1.40;99.90;;;;;;5060065;28;20023;-69
2024/01/22 06:46:04;;;;;;;;;;;1.50;99.90;;;;;;5065024;28;19939;-68
2024/01/22 06:48:31;;;;;;;;;;;1.50;99.90;;;;;;5059256;28;19933;-69
2024/01/22 06:50:57;;;;;;;;;;;2.20;99.90;;;;;;5062089;28;19971;-72
2024/01/22 06:53:24;;;;;;;;;;;2.80;99.90;;;;;;5060370;28;19932;-72
2024/01/22 06:55:50;;;;;;;;;;;3.10;99.90;;;;;;5064251;28;20553;-72
2024/01/22 06:58:20;;;;;;;;;;;3.20;99.90;;;;;;5063482;28;20346;-72
2024/01/22 07:00:47;;;;;;;;;;;3.20;99.90;;;;;;5059656;28;20003;-72
2024/01/22 07:03:13;;;;;;;;;;;3.20;99.90;;;;;;5062684;28;21355;-73
2024/01/22 07:05:40;;;;;;;;;;;3.10;99.90;;;;;;5062125;28;20001;-71
2024/01/22 07:08:07;;;;;;;;;;;3.00;99.90;;;;;;5058508;28;19984;-71
2024/01/22 07:10:33;;;;;;;;;;;2.90;99.90;;;;;;5063155;28;20743;-71
2024/01/22 07:13:00;;;;;;;;;;;2.90;99.90;;;;;;5057335;28;19980;-70
2024/01/22 07:15:28;;;;;;;;;;;2.80;99.90;;;;;;5060109;28;20013;-73
2024/01/22 07:17:55;;;;;;;;;;;2.80;99.90;;;;;;5064360;28;20087;-71
2024/01/22 07:20:22;;;;;;;;;;;2.70;99.90;;;;;;5062833;28;19985;-71
2024/01/22 07:22:48;;;;;;;;;;;2.70;99.90;;;;;;5058661;28;19976;-71
2024/01/22 07:25:15;;;;;;;;;;;2.70;99.90;;;;;;5061219;28;19996;-73
2024/01/22 07:27:44;;;;;;;;;;;2.70;99.90;;;;;;5061497;28;20039;-71
2024/01/22 07:30:12;;;;;;;;;;;2.70;99.90;;;;;;5063410;28;20006;-72
2024/01/22 07:32:40;;;;;;;;;;;2.70;99.90;;;;;;5058175;28;19981;-72
2024/01/22 07:35:08;;;;;;;;;;;2.80;99.90;;;;;;5062905;28;20039;-72
2024/01/22 07:37:35;;;;;;;;;;;2.80;99.90;;;;;;5061719;28;19987;-70
2024/01/22 07:40:04;;;;;;;;;;;2.80;99.90;;;;;;5063209;28;20402;-74
2024/01/22 07:42:31;;;;;;;;;;;2.90;99.90;;;;;;5059836;28;19980;-77
2024/01/22 07:44:57;;;;;;;;;;;2.90;99.90;;;;;;5064494;28;20003;-75
2024/01/22 07:47:24;;;;;;;;;;;2.90;99.90;;;;;;5059381;28;20000;-76
2024/01/22 07:49:51;;;;;;;;;;;3.00;99.90;;;;;;5060231;28;19976;-75
2024/01/22 07:52:17;;;;;;;;;;;3.00;99.90;;;;;;5060582;28;19985;-76
2024/01/22 07:54:44;;;;;;;;;;;3.00;99.90;;;;;;5059924;28;19996;-76
2024/01/22 07:57:11;;;;;;;;;;;3.10;99.90;;;;;;5062317;28;19985;-76
2024/01/22 07:59:38;;;;;;;;;;;3.10;99.90;;;;;;5062907;28;20071;-76
2024/01/22 08:02:05;;;;;;;;;;;3.10;99.90;;;;;;5056829;28;20035;-75
2024/01/22 08:04:31;;;;;;;;;;;3.10;99.90;;;;;;5062960;28;20366;-75
2024/01/22 08:07:02;;;;;;;;;;;3.20;99.90;;;;;;5061287;28;19999;-76
2024/01/22 08:09:29;;;;;;;;;;;3.20;99.90;;;;;;5057708;28;19980;-77
2024/01/22 08:11:55;;;;;;;;;;;3.30;99.90;;;;;;5060092;28;20065;-78
2024/01/22 08:14:22;;;;;;;;;;;3.30;99.90;;;;;;5062896;28;20006;-75
2024/01/22 08:16:49;;;;;;;;;;;3.40;99.90;;;;;;5060514;28;20477;-77
2024/01/22 08:19:15;;;;;;;;;;;3.40;99.90;;;;;;5063141;28;20019;-79
2024/01/22 08:21:42;;;;;;;;;;;3.50;99.90;;;;;;5058872;28;19980;-75
2024/01/22 08:24:10;;;;;;;;;;;3.50;99.90;;;;;;5060474;28;19976;-76
2024/01/22 08:26:36;;;;;;;;;;;3.60;99.90;;;;;;5055548;28;19992;-77
2024/01/22 08:29:03;;;;;;;;;;;3.60;99.90;;;;;;5060660;28;19984;-77
2024/01/22 08:31:30;;;;;;;;;;;3.60;99.90;;;;;;5062864;28;20002;-75
2024/01/22 08:33:56;;;;;;;;;;;3.60;99.90;;;;;;5062041;28;19988;-78
2024/01/22 08:36:23;;;;;;;;;;;3.70;99.90;;;;;;5057294;28;20004;-77
2024/01/22 08:38:50;;;;;;;;;;;3.70;99.90;;;;;;5060747;28;19981;-75
2024/01/22 08:41:17;;;;;;;;;;;3.80;99.90;;;;;;5057348;28;20015;-77
2024/01/22 08:43:44;;;;;;;;;;;3.80;99.90;;;;;;5060123;28;19984;-76
2024/01/22 08:46:10;;;;;;;;;;;3.90;99.90;;;;;;5058174;28;20488;-79
2024/01/22 08:48:37;;;;;;;;;;;3.90;99.90;;;;;;5058440;28;19976;-76
2024/01/22 08:51:03;;;;;;;;;;;4.00;99.90;;;;;;5060962;28;19976;-77
2024/01/22 08:53:30;;;;;;;;;;;4.10;99.90;;;;;;5058412;28;20008;-76
2024/01/22 08:55:56;;;;;;;;;;;4.10;99.90;;;;;;5060737;28;20043;-77
2024/01/22 08:58:24;;;;;;;;;;;4.10;99.90;;;;;;5062247;28;19976;-76
2024/01/22 09:00:51;;;;;;;;;;;4.20;99.90;;;;;;5058757;28;19992;-76
2024/01/22 09:03:18;;;;;;;;;;;4.20;99.90;;;;;;5059058;28;20441;-76
2024/01/22 09:05:45;;;;;;;;;;;4.30;99.90;;;;;;5061590;28;20421;-77
2024/01/22 09:08:11;;;;;;;;;;;4.30;99.90;;;;;;5065815;28;19980;-75
2024/01/22 09:10:38;;;;;;;;;;;4.30;99.90;;;;;;5064158;28;20950;-79
2024/01/22 09:13:05;;;;;;;;;;;4.40;99.90;;;;;;5064829;28;20464;-78
2024/01/22 09:15:33;;;;;;;;;;;4.40;99.90;;;;;;5061469;28;19995;-76
2024/01/22 09:17:59;;;;;;;;;;;4.40;99.90;;;;;;5065105;28;20024;-79
2024/01/22 09:20:26;;;;;;;;;;;4.40;99.90;;;;;;5061936;28;19975;-71
2024/01/22 09:22:52;;;;;;;;;;;4.50;99.90;;;;;;5065154;28;19982;-71
2024/01/22 09:25:20;;;;;;;;;;;4.50;99.90;;;;;;5065849;28;20029;-73
2024/01/22 09:27:47;;;;;;;;;;;4.50;99.90;;;;;;5064565;28;19980;-72
2024/01/22 09:30:14;;;;;;;;;;;4.50;99.90;;;;;;5063439;28;19982;-71
2024/01/22 09:32:42;;;;;;;;;;;4.60;99.90;;;;;;5063600;28;19982;-73
2024/01/22 09:35:08;;;;;;;;;;;4.60;99.90;;;;;;5064613;28;20065;-72
2024/01/22 09:37:35;;;;;;;;;;;4.60;99.90;;;;;;5062177;28;20014;-72
2024/01/22 09:40:01;;;;;;;;;;;4.60;99.90;;;;;;5065302;28;20522;-72
2024/01/22 09:42:29;;;;;;;;;;;4.60;99.90;;;;;;5064953;28;20025;-72
2024/01/22 09:44:56;;;;;;;;;;;4.70;99.90;;;;;;5062722;28;20436;-72
2024/01/22 09:47:22;;;;;;;;;;;4.70;99.90;;;;;;5061605;28;20751;-74
2024/01/22 09:49:50;;;;;;;;;;;4.70;99.90;;;;;;5064692;28;19979;-71
2024/01/22 09:52:17;;;;;;;;;;;4.70;99.90;;;;;;5064995;28;20065;-72
2024/01/22 09:54:44;;;;;;;;;;;4.70;99.90;;;;;;5065266;28;20120;-71
2024/01/22 09:57:14;;;;;;;;;;;4.80;99.90;;;;;;5064529;28;20103;-72
2024/01/22 09:59:42;;;;;;;;;;;4.80;99.90;;;;;;5063508;28;20090;-72
2024/01/22 10:02:10;;;;;;;;;;;4.80;99.90;;;;;;5057704;28;20384;-71
2024/01/22 10:04:36;;;;;;;;;;;4.80;99.90;;;;;;5061910;28;19975;-74
2024/01/22 10:07:05;;;;;;;;;;;4.90;99.90;;;;;;5063805;28;19999;-72
2024/01/22 10:09:31;;;;;;;;;;;4.90;99.90;;;;;;5065160;28;19980;-71
2024/01/22 10:11:58;;;;;;;;;;;5.00;99.90;;;;;;5064770;28;19979;-72
2024/01/22 10:14:29;;;;;;;;;;;5.00;99.90;;;;;;5062431;28;19988;-71
2024/01/22 10:16:56;;;;;;;;;;;5.00;99.90;;;;;;5061740;28;19998;-72
2024/01/22 10:19:25;;;;;;;;;;;5.00;99.90;;;;;;5062851;28;20445;-73
2024/01/22 10:22:00;;;;;;;;;;;5.10;99.90;;;;;;5063796;28;19985;-71
2024/01/22 10:24:30;;;;;;;;;;;5.10;99.90;;;;;;5061291;28;20536;-71
2024/01/22 10:26:57;;;;;;;;;;;5.10;99.90;;;;;;5063092;28;19995;-72
2024/01/22 10:29:28;;;;;;;;;;;5.20;99.90;;;;;;5067815;28;19983;-71
2024/01/22 10:31:56;;;;;;;;;;;5.20;99.90;;;;;;5064312;28;20034;-73
2024/01/22 10:34:22;;;;;;;;;;;5.20;99.90;;;;;;5066162;28;19976;-73
2024/01/22 10:37:03;;;;;;;;;;;5.30;99.90;;;;;;5058761;28;19996;-71
2024/01/22 10:39:31;;;;;;;;;;;5.30;99.90;;;;;;5063944;28;19976;-72
2024/01/22 10:42:06;;;;;;;;;;;5.30;99.90;;;;;;5057993;28;19980;-74
2024/01/22 10:44:33;;;;;;;;;;;5.30;99.90;;;;;;5060904;28;19975;-72
2024/01/22 10:47:03;;;;;;;;;;;5.40;99.90;;;;;;5058596;28;19995;-74
2024/01/22 10:49:30;;;;;;;;;;;5.40;99.90;;;;;;5063263;28;19975;-75
2024/01/22 10:51:57;;;;;;;;;;;5.40;99.90;;;;;;5059794;28;20057;-76
2024/01/22 10:54:23;;;;;;;;;;;5.80;99.90;;;;;;5061503;28;20074;-76
2024/01/22 10:56:51;;;;;;;;;;;5.50;99.90;;;;;;5061041;28;19995;-77
2024/01/22 10:59:21;;;;;;;;;;;5.50;99.90;;;;;;5063835;28;20584;-76
2024/01/22 11:01:48;;;;;;;;;;;5.50;99.90;;;;;;5057257;28;20044;-77
2024/01/22 11:04:18;;;;;;;;;;;5.50;99.90;;;;;;5065748;28;19976;-76
2024/01/22 11:06:45;;;;;;;;;;;5.60;99.90;;;;;;5058303;28;20014;-76
2024/01/22 11:09:12;;;;;;;;;;;5.60;99.90;;;;;;5062333;28;20489;-76
2024/01/22 11:11:40;;;;;;;;;;;5.60;99.90;;;;;;5060149;28;19975;-73
2024/01/22 11:14:08;;;;;;;;;;;5.70;99.90;;;;;;5060268;28;19979;-75
2024/01/22 11:16:35;;;;;;;;;;;5.70;99.90;;;;;;5058478;28;19995;-76
2024/01/22 11:19:02;;;;;;;;;;;5.70;99.90;;;;;;5060718;28;19980;-76
2024/01/22 11:21:32;;;;;;;;;;;5.70;99.90;;;;;;5061245;28;19975;-77
2024/01/22 11:24:05;;;;;;;;;;;5.80;99.90;;;;;;5057994;28;20021;-76
2024/01/22 11:26:32;;;;;;;;;;;5.80;99.90;;;;;;5059947;28;19995;-75
2024/01/22 11:29:09;;;;;;;;;;;5.80;99.90;;;;;;5062276;28;19983;-76
2024/01/22 11:31:37;;;;;;;;;;;5.80;99.90;;;;;;5057977;28;20442;-75
2024/01/22 11:34:03;;;;;;;;;;;5.90;99.90;;;;;;5059941;28;20439;-76
2024/01/22 11:36:48;;;;;;;;;;;5.90;99.90;;;;;;5061223;28;20006;-75
2024/01/22 11:39:39;;;;;;;;;;;5.90;99.90;;;;;;5058690;28;19982;-76
2024/01/22 11:42:25;;;;;;;;;;;5.90;99.90;;;;;;5059132;28;20456;-76
2024/01/22 11:44:53;;;;;;;;;;;5.90;99.90;;;;;;5057171;28;20432;-76
2024/01/22 11:47:21;;;;;;;;;;;6.00;99.90;;;;;;5059434;28;20065;-76
2024/01/22 11:49:48;;;;;;;;;;;6.00;99.90;;;;;;5056631;28;19979;-74
2024/01/22 11:52:16;;;;;;;;;;;6.00;99.90;;;;;;5056283;28;20049;-75
2024/01/22 11:54:52;;;;;;;;;;;6.10;99.90;;;;;;5061583;28;20025;-76
2024/01/22 11:57:20;;;;;;;;;;;6.10;99.90;;;;;;5058474;28;21261;-78
2024/01/22 11:59:58;;;;;;;;;;;6.10;99.90;;;;;;5059632;28;20029;-76
2024/01/22 12:02:25;;;;;;;;;;;6.10;99.90;;;;;;5055239;28;20676;-76
2024/01/22 12:04:59;;;;;;;;;;;6.20;99.90;;;;;;5061767;28;19982;-77
2024/01/22 12:07:30;;;;;;;;;;;6.10;99.90;;;;;;5055731;28;20839;-76
2024/01/22 12:09:57;;;;;;;;;;;6.20;99.90;;;;;;5059213;28;19988;-75
2024/01/22 12:12:23;;;;;;;;;;;6.20;99.90;;;;;;5059730;28;19976;-76
2024/01/22 12:14:54;;;;;;;;;;;6.20;99.90;;;;;;5060477;28;19982;-75
2024/01/22 12:17:22;;;;;;;;;;;6.30;99.90;;;;;;5059378;28;20599;-75
2024/01/22 12:19:53;;;;;;;;;;;6.30;99.90;;;;;;5057909;28;19990;-75
2024/01/22 12:22:20;;;;;;;;;;;6.30;99.90;;;;;;5061326;28;20444;-77
2024/01/22 12:25:01;;;;;;;;;;;6.30;99.90;;;;;;5059811;28;20062;-76
2024/01/22 12:27:29;;;;;;;;;;;6.30;99.90;;;;;;5060860;28;20469;-76
2024/01/22 12:29:59;;;;;;;;;;;6.30;99.90;;;;;;5063502;28;20608;-77
2024/01/22 12:32:27;;;;;;;;;;;6.30;99.90;;;;;;5061492;28;20002;-76
2024/01/22 12:34:56;;;;;;;;;;;6.40;99.90;;;;;;5060307;28;19976;-78
2024/01/22 12:37:25;;;;;;;;;;;6.40;99.90;;;;;;5058773;28;20077;-76
2024/01/22 12:40:04;;;;;;;;;;;6.40;99.90;;;;;;5060236;28;20072;-77
2024/01/22 12:42:31;;;;;;;;;;;6.40;99.90;;;;;;5064824;28;19975;-75
2024/01/22 12:44:58;;;;;;;;;;;6.40;99.90;;;;;;5063343;28;20002;-78
2024/01/22 12:47:26;;;;;;;;;;;6.40;99.90;;;;;;5063515;28;19991;-75
2024/01/22 12:49:53;;;;;;;;;;;6.50;99.90;;;;;;5063556;28;19980;-77
2024/01/22 12:52:22;;;;;;;;;;;6.40;99.90;;;;;;5063412;28;19979;-74
2024/01/22 12:54:48;;;;;;;;;;;6.50;99.90;;;;;;5061931;28;19982;-76
2024/01/22 12:57:15;;;;;;;;;;;6.50;99.90;;;;;;5062577;28;19991;-76
2024/01/22 12:59:45;;;;;;;;;;;6.50;99.90;;;;;;5063039;28;19979;-76
2024/01/22 13:02:12;;;;;;;;;;;6.50;99.90;;;;;;5060051;28;20007;-75
2024/01/22 13:04:39;;;;;;;;;;;6.60;99.90;;;;;;5064978;28;19982;-75
2024/01/22 13:07:06;;;;;;;;;;;6.60;99.90;;;;;;5059190;28;19995;-76
2024/01/22 13:09:33;;;;;;;;;;;6.60;99.90;;;;;;5061716;28;19975;-75
2024/01/22 13:11:59;;;;;;;;;;;6.60;99.90;;;;;;5064160;28;19979;-75
2024/01/22 13:14:26;;;;;;;;;;;6.60;99.90;;;;;;5064909;28;19976;-77
2024/01/22 13:16:52;;;;;;;;;;;6.60;99.90;;;;;;5063621;28;20511;-76
2024/01/22 13:19:19;;;;;;;;;;;6.70;99.90;;;;;;5066857;28;19979;-75
2024/01/22 13:21:47;;;;;;;;;;;6.60;99.90;;;;;;5066439;28;19976;-78
2024/01/22 13:24:14;;;;;;;;;;;6.70;99.90;;;;;;5062326;28;19979;-76
2024/01/22 13:26:40;;;;;;;;;;;6.70;99.90;;;;;;5061749;28;19998;-77
2024/01/22 13:29:07;;;;;;;;;;;6.70;99.90;;;;;;5065043;28;20201;-78
2024/01/22 13:31:33;;;;;;;;;;;6.70;99.90;;;;;;5060574;28;19998;-75
2024/01/22 13:34:00;;;;;;;;;;;6.70;99.90;;;;;;5066131;28;19979;-75
2024/01/22 13:36:26;;;;;;;;;;;6.70;99.90;;;;;;5062483;28;19999;-76
2024/01/22 13:38:55;;;;;;;;;;;6.70;99.90;;;;;;5064873;28;20090;-77
2024/01/22 13:41:22;;;;;;;;;;;6.70;99.90;;;;;;5061470;28;20341;-76
2024/01/22 13:43:51;;;;;;;;;;;6.70;99.90;;;;;;5063377;28;20068;-76
2024/01/22 13:46:17;;;;;;;;;;;6.70;99.90;;;;;;5061685;28;20007;-75
2024/01/22 13:48:46;;;;;;;;;;;6.70;99.90;;;;;;5062073;28;19980;-76
2024/01/22 13:51:13;;;;;;;;;;;6.70;99.90;;;;;;5060244;28;19979;-76
2024/01/22 13:53:40;;;;;;;;;;;6.70;99.90;;;;;;5063273;28;20152;-75
2024/01/22 13:56:08;;;;;;;;;;;6.80;99.90;;;;;;5063678;28;19999;-75
2024/01/22 13:58:35;;;;;;;;;;;6.80;99.90;;;;;;5066678;28;20019;-74
2024/01/22 14:01:01;;;;;;;;;;;6.80;99.90;;;;;;5062138;28;20453;-77
2024/01/22 14:03:28;;;;;;;;;;;6.80;99.90;;;;;;5061896;28;19983;-76
2024/01/22 14:05:54;;;;;;;;;;;6.80;99.90;;;;;;5062067;28;20045;-75
2024/01/22 14:08:22;;;;;;;;;;;6.80;99.90;;;;;;5062494;28;20399;-76
2024/01/22 14:10:48;;;;;;;;;;;6.90;99.90;;;;;;5064682;28;20460;-78
2024/01/22 14:13:16;;;;;;;;;;;6.90;99.90;;;;;;5061785;28;20710;-76
2024/01/22 14:15:43;;;;;;;;;;;6.90;99.90;;;;;;5063513;28;19995;-77
2024/01/22 14:18:10;;;;;;;;;;;6.90;99.90;;;;;;5062590;28;20009;-76
2024/01/22 14:20:37;;;;;;;;;;;6.90;99.90;;;;;;5061729;28;19988;-76
2024/01/22 14:23:06;;;;;;;;;;;7.00;99.90;;;;;;5064873;28;20091;-77
2024/01/22 14:25:33;;;;;;;;;;;7.00;99.90;;;;;;5062335;28;20086;-75
2024/01/22 14:27:59;;;;;;;;;;;7.00;99.90;;;;;;5063105;28;19990;-76
2024/01/22 14:30:27;;;;;;;;;;;7.00;99.90;;;;;;5063197;28;20689;-71
2024/01/22 14:32:54;;;;;;;;;;;7.10;99.90;;;;;;5065631;28;20429;-71